Time;durP1;ratioP1;P1;durP2;ratioP2;P2;SDS_P1;SDS_P2;PMS_P1;PMS_P2;Temp;Humidity;BMP_temperature;BMP_pressure;BME280_temperature;BME280_humidity;BME280_pressure;Samples;Min_cycle;Max_cycle;Signal;HPM_P1;HPM_P2
2022/06/29 00:02:05;;;;;;;10.48;6.55;;;;;;;;;;5052402;28;20045;-62
2022/06/29 00:04:31;;;;;;;14.40;7.18;;;;;;;;;;5053646;28;20044;-62
2022/06/29 00:06:57;;;;;;;12.50;7.15;;;;;;;;;;5053068;28;20041;-62
2022/06/29 00:09:23;;;;;;;8.32;7.00;;;;;;;;;;5052991;28;20041;-62
2022/06/29 00:11:49;;;;;;;9.00;7.20;;;;;;;;;;5051975;28;20055;-63
2022/06/29 00:14:15;;;;;;;10.98;7.20;;;;;;;;;;5052091;28;20044;-62
2022/06/29 00:16:41;;;;;;;13.20;6.93;;;;;;;;;;5052870;28;20049;-63
2022/06/29 00:19:07;;;;;;;10.32;6.95;;;;;;;;;;5051409;28;20061;-62
2022/06/29 00:21:34;;;;;;;12.80;7.43;;;;;;;;;;5053624;28;20048;-63
2022/06/29 00:24:00;;;;;;;10.20;7.47;;;;;;;;;;5052308;28;20048;-63
2022/06/29 00:26:29;;;;;;;9.45;7.50;;;;;;;;;;5052193;28;20041;-63
2022/06/29 00:28:55;;;;;;;11.38;7.05;;;;;;;;;;5052718;28;20049;-63
2022/06/29 00:31:21;;;;;;;8.60;6.70;;;;;;;;;;5034698;28;20051;-62
2022/06/29 00:33:47;;;;;;;7.63;6.55;;;;;;;;;;5035051;28;20079;-62
2022/06/29 00:36:13;;;;;;;13.43;7.22;;;;;;;;;;5051538;28;20190;-62
2022/06/29 00:38:39;;;;;;;9.07;7.38;;;;;;;;;;5052279;28;20619;-62
2022/06/29 00:41:05;;;;;;;14.75;7.75;;;;;;;;;;5051244;28;20124;-63
2022/06/29 00:43:39;;;;;;;10.20;7.13;;;;;;;;;;5051948;28;20036;-62
2022/06/29 00:46:05;;;;;;;9.45;7.07;;;;;;;;;;5050355;28;20037;-62
2022/06/29 00:48:31;;;;;;;12.40;7.25;;;;;;;;;;5051859;28;20122;-62
2022/06/29 00:50:58;;;;;;;11.55;6.70;;;;;;;;;;5052438;28;20052;-62
2022/06/29 00:53:26;;;;;;;12.75;7.97;;;;;;;;;;5052533;28;20049;-62
2022/06/29 00:55:53;;;;;;;12.98;7.85;;;;;;;;;;5052370;28;20045;-62
2022/06/29 00:58:21;;;;;;;10.38;7.88;;;;;;;;;;5050970;28;20057;-63
2022/06/29 01:00:47;;;;;;;8.95;6.90;;;;;;;;;;5052156;28;20049;-62
2022/06/29 01:03:13;;;;;;;13.13;7.43;;;;;;;;;;5051385;28;20102;-62
2022/06/29 01:05:39;;;;;;;10.52;6.85;;;;;;;;;;5050578;28;20551;-62
2022/06/29 01:08:05;;;;;;;10.20;7.15;;;;;;;;;;5051924;28;20551;-62
2022/06/29 01:10:31;;;;;;;9.50;6.82;;;;;;;;;;5051245;28;20037;-62
2022/06/29 01:12:57;;;;;;;10.18;6.90;;;;;;;;;;5049832;28;20049;-62
2022/06/29 01:15:23;;;;;;;10.45;6.93;;;;;;;;;;5034512;28;20045;-62
2022/06/29 01:17:49;;;;;;;9.80;7.40;;;;;;;;;;5052221;28;20045;-62
2022/06/29 01:20:15;;;;;;;8.95;6.82;;;;;;;;;;5050051;28;20406;-63
2022/06/29 01:22:41;;;;;;;10.60;6.90;;;;;;;;;;5050504;28;20056;-62
2022/06/29 01:25:08;;;;;;;10.43;7.22;;;;;;;;;;5050374;28;20124;-62
2022/06/29 01:27:34;;;;;;;9.23;6.80;;;;;;;;;;5050618;28;20383;-63
2022/06/29 01:30:00;;;;;;;11.18;7.22;;;;;;;;;;5050762;28;20396;-62
2022/06/29 01:32:26;;;;;;;11.27;7.72;;;;;;;;;;5051091;28;20120;-62
2022/06/29 01:34:52;;;;;;;9.90;7.10;;;;;;;;;;5050426;28;20123;-62
2022/06/29 01:37:18;;;;;;;9.40;6.55;;;;;;;;;;5052291;28;20468;-63
2022/06/29 01:39:44;;;;;;;9.93;7.20;;;;;;;;;;5050689;28;20036;-62
2022/06/29 01:42:10;;;;;;;11.93;7.85;;;;;;;;;;5051023;28;20481;-62
2022/06/29 01:44:37;;;;;;;8.90;7.45;;;;;;;;;;5050943;28;20049;-62
2022/06/29 01:47:03;;;;;;;10.32;7.18;;;;;;;;;;5050379;28;20128;-62
2022/06/29 01:49:29;;;;;;;14.75;7.47;;;;;;;;;;5051294;28;20048;-63
2022/06/29 01:51:56;;;;;;;9.27;7.18;;;;;;;;;;5051382;28;20045;-62
2022/06/29 01:54:22;;;;;;;8.13;7.30;;;;;;;;;;5033656;28;20398;-62
2022/06/29 01:56:48;;;;;;;10.50;7.40;;;;;;;;;;5051816;28;20102;-62
2022/06/29 01:59:15;;;;;;;10.75;7.85;;;;;;;;;;5050518;28;20114;-62
2022/06/29 02:01:41;;;;;;;11.43;8.38;;;;;;;;;;5049856;28;20068;-62
2022/06/29 02:04:07;;;;;;;11.27;8.07;;;;;;;;;;5033608;28;20045;-62
2022/06/29 02:06:34;;;;;;;9.85;6.93;;;;;;;;;;5050610;28;20033;-62
2022/06/29 02:09:00;;;;;;;11.32;7.45;;;;;;;;;;5032791;28;20167;-62
2022/06/29 02:11:26;;;;;;;8.82;7.70;;;;;;;;;;5051012;28;20398;-62
2022/06/29 02:13:52;;;;;;;8.85;7.55;;;;;;;;;;5050339;28;20045;-62
2022/06/29 02:16:18;;;;;;;9.05;7.68;;;;;;;;;;5049735;28;20209;-62
2022/06/29 02:18:44;;;;;;;9.88;7.22;;;;;;;;;;5051426;28;20167;-62
2022/06/29 02:21:10;;;;;;;13.45;8.38;;;;;;;;;;5050165;28;20045;-63
2022/06/29 02:23:36;;;;;;;10.07;7.57;;;;;;;;;;5049897;28;20484;-62
2022/06/29 02:26:03;;;;;;;11.80;7.55;;;;;;;;;;5050307;28;20080;-62
2022/06/29 02:28:29;;;;;;;8.80;7.63;;;;;;;;;;5050715;28;20115;-62
2022/06/29 02:36:24;;;;;;;10.55;7.65;;;;;;;;;;5054085;28;20045;-62
2022/06/29 02:38:50;;;;;;;11.10;7.80;;;;;;;;;;5053089;28;20127;-62
2022/06/29 02:41:16;;;;;;;9.90;8.10;;;;;;;;;;5055203;28;20072;-63
2022/06/29 02:43:42;;;;;;;10.10;7.22;;;;;;;;;;5054360;28;20475;-62
2022/06/29 02:46:08;;;;;;;12.38;9.40;;;;;;;;;;5055066;28;20044;-63
2022/06/29 02:48:34;;;;;;;12.40;8.30;;;;;;;;;;5053952;28;20048;-63
2022/06/29 02:51:00;;;;;;;10.23;7.38;;;;;;;;;;5052378;28;20397;-62
2022/06/29 02:53:26;;;;;;;9.05;7.63;;;;;;;;;;5054918;28;20041;-62
2022/06/29 02:55:53;;;;;;;12.18;8.20;;;;;;;;;;5053887;28;20429;-63
2022/06/29 02:58:18;;;;;;;9.25;7.60;;;;;;;;;;5054411;28;20401;-62
2022/06/29 03:00:44;;;;;;;8.82;7.13;;;;;;;;;;5054661;28;20123;-63
2022/06/29 03:03:10;;;;;;;10.98;7.78;;;;;;;;;;5054566;28;20037;-62
2022/06/29 03:05:36;;;;;;;9.93;7.53;;;;;;;;;;5052652;28;20124;-62
2022/06/29 03:08:03;;;;;;;11.95;7.85;;;;;;;;;;5054695;28;20928;-63
2022/06/29 03:10:29;;;;;;;11.00;8.20;;;;;;;;;;5054985;28;20076;-62
2022/06/29 03:12:55;;;;;;;10.43;7.80;;;;;;;;;;5052116;28;20045;-62
2022/06/29 03:15:21;;;;;;;10.32;7.60;;;;;;;;;;5054724;28;20044;-62
2022/06/29 03:17:47;;;;;;;10.05;7.53;;;;;;;;;;5053366;28;20052;-62
2022/06/29 03:20:13;;;;;;;10.77;7.43;;;;;;;;;;5053160;28;20067;-62
2022/06/29 03:22:39;;;;;;;10.43;8.10;;;;;;;;;;5053657;28;20045;-62
2022/06/29 03:25:05;;;;;;;9.75;8.55;;;;;;;;;;5052911;28;20048;-62
2022/06/29 03:27:35;;;;;;;10.27;7.45;;;;;;;;;;5053854;28;20037;-62
2022/06/29 03:30:01;;;;;;;9.85;8.05;;;;;;;;;;5052506;28;20116;-62
2022/06/29 03:32:27;;;;;;;10.55;8.73;;;;;;;;;;5053391;28;20095;-63
2022/06/29 03:34:53;;;;;;;9.32;7.13;;;;;;;;;;5053331;28;20048;-62
2022/06/29 03:37:19;;;;;;;9.48;7.80;;;;;;;;;;5052922;28;20444;-62
2022/06/29 03:39:45;;;;;;;10.13;7.63;;;;;;;;;;5036116;28;20041;-62
2022/06/29 03:42:11;;;;;;;11.00;7.65;;;;;;;;;;5053138;28;20040;-62
2022/06/29 03:44:38;;;;;;;9.90;6.93;;;;;;;;;;5052956;28;20081;-63
2022/06/29 03:47:03;;;;;;;9.52;7.10;;;;;;;;;;5052246;28;20077;-62
2022/06/29 03:49:29;;;;;;;10.63;7.03;;;;;;;;;;5053736;28;20493;-62
2022/06/29 03:51:56;;;;;;;10.02;7.75;;;;;;;;;;5053583;28;20080;-62
2022/06/29 03:54:22;;;;;;;13.43;8.55;;;;;;;;;;5035403;28;20040;-62
2022/06/29 03:56:48;;;;;;;12.80;8.55;;;;;;;;;;5052417;28;20044;-63
2022/06/29 03:59:14;;;;;;;11.80;8.02;;;;;;;;;;5053600;28;20052;-62
2022/06/29 04:01:40;;;;;;;11.73;8.00;;;;;;;;;;5052802;28;20394;-63
2022/06/29 04:04:06;;;;;;;10.05;7.72;;;;;;;;;;5053059;28;20052;-62
2022/06/29 04:06:32;;;;;;;10.70;8.13;;;;;;;;;;5036100;28;20041;-62
2022/06/29 04:08:58;;;;;;;10.10;6.40;;;;;;;;;;5034763;28;20037;-62
2022/06/29 04:14:08;;;;;;;8.18;6.68;;;;;;;;;;5052249;28;20049;-62
2022/06/29 04:16:34;;;;;;;9.25;7.10;;;;;;;;;;5034817;28;20124;-63
2022/06/29 04:19:01;;;;;;;9.98;6.88;;;;;;;;;;5051432;28;20049;-62
2022/06/29 04:21:27;;;;;;;12.15;7.15;;;;;;;;;;5053331;28;20101;-63
2022/06/29 04:23:53;;;;;;;10.77;6.82;;;;;;;;;;5050799;28;20508;-62
2022/06/29 04:26:19;;;;;;;12.60;7.32;;;;;;;;;;5052063;28;20043;-62
2022/06/29 04:28:45;;;;;;;8.65;6.22;;;;;;;;;;5053053;28;20033;-61
2022/06/29 04:31:11;;;;;;;9.55;7.47;;;;;;;;;;5052041;28;20049;-62
2022/06/29 04:33:37;;;;;;;13.63;7.55;;;;;;;;;;5051995;28;20136;-62
2022/06/29 04:36:04;;;;;;;11.32;7.57;;;;;;;;;;5052713;28;20462;-62
2022/06/29 04:38:30;;;;;;;8.88;5.72;;;;;;;;;;5051753;28;20076;-62
2022/06/29 04:40:56;;;;;;;9.30;6.45;;;;;;;;;;5051221;28;20489;-62
2022/06/29 04:43:27;;;;;;;7.57;5.85;;;;;;;;;;5052255;28;20465;-62
2022/06/29 04:48:38;;;;;;;;;;;;;;;;;;5053410;28;20040;-62
2022/06/29 04:51:04;;;;;;;9.55;5.80;;;;;;;;;;5050407;28;19923;-62
2022/06/29 04:53:30;;;;;;;8.02;6.57;;;;;;;;;;5052932;28;20041;-63
2022/06/29 04:55:56;;;;;;;9.85;6.28;;;;;;;;;;5052241;28;20044;-62
2022/06/29 04:58:22;;;;;;;9.00;5.70;;;;;;;;;;5049874;28;20174;-62
2022/06/29 05:00:48;;;;;;;8.73;6.15;;;;;;;;;;5052532;28;20040;-62
2022/06/29 05:03:14;;;;;;;8.85;6.03;;;;;;;;;;5052418;28;20040;-63
2022/06/29 05:05:40;;;;;;;8.13;6.00;;;;;;;;;;5051990;28;20036;-62
2022/06/29 05:08:06;;;;;;;10.27;6.28;;;;;;;;;;5050751;28;20069;-62
2022/06/29 05:10:32;;;;;;;9.35;5.70;;;;;;;;;;5051426;28;20115;-63
2022/06/29 05:12:58;;;;;;;8.00;6.07;;;;;;;;;;5051066;28;20048;-63
2022/06/29 05:15:25;;;;;;;9.45;6.38;;;;;;;;;;5051517;28;20120;-62
2022/06/29 05:17:51;;;;;;;9.18;6.10;;;;;;;;;;5052178;28;20044;-62
2022/06/29 05:20:20;;;;;;;10.52;6.53;;;;;;;;;;5051114;28;20061;-62
2022/06/29 05:22:46;;;;;;;8.90;6.63;;;;;;;;;;5034357;28;20053;-62
2022/06/29 05:25:12;;;;;;;9.75;5.85;;;;;;;;;;5052027;28;20047;-62
2022/06/29 05:27:38;;;;;;;9.48;6.90;;;;;;;;;;5050406;28;20048;-62
2022/06/29 05:30:05;;;;;;;8.07;6.18;;;;;;;;;;5051885;28;20044;-62
2022/06/29 05:32:31;;;;;;;7.95;5.95;;;;;;;;;;5050355;28;20513;-62
2022/06/29 05:34:57;;;;;;;8.60;6.40;;;;;;;;;;5050417;28;20057;-62
2022/06/29 05:37:23;;;;;;;7.45;5.82;;;;;;;;;;5034603;28;20572;-63
2022/06/29 05:39:49;;;;;;;7.95;6.35;;;;;;;;;;5050141;28;20037;-62
2022/06/29 05:42:15;;;;;;;9.65;6.22;;;;;;;;;;5051759;28;20385;-63
2022/06/29 05:44:42;;;;;;;7.47;6.30;;;;;;;;;;5050809;28;20585;-62
2022/06/29 05:47:08;;;;;;;10.38;6.10;;;;;;;;;;5049555;28;20048;-62
2022/06/29 05:49:35;;;;;;;8.23;6.03;;;;;;;;;;5051143;28;20394;-63
2022/06/29 05:52:02;;;;;;;8.13;6.22;;;;;;;;;;5050671;28;20041;-63
2022/06/29 05:54:28;;;;;;;8.63;6.20;;;;;;;;;;5033397;28;20045;-62
2022/06/29 05:56:54;;;;;;;9.05;6.35;;;;;;;;;;5051465;28;20056;-62
2022/06/29 05:59:20;;;;;;;9.27;6.25;;;;;;;;;;5050884;28;20041;-63
2022/06/29 06:01:46;;;;;;;8.05;6.78;;;;;;;;;;5050810;28;20482;-62
2022/06/29 06:04:12;;;;;;;12.45;6.55;;;;;;;;;;5051814;28;20048;-62
2022/06/29 06:06:38;;;;;;;10.10;6.47;;;;;;;;;;5050667;28;20041;-63
2022/06/29 06:09:04;;;;;;;9.20;5.65;;;;;;;;;;5050232;28;20120;-63
2022/06/29 06:11:30;;;;;;;8.70;6.13;;;;;;;;;;5054663;28;20044;-63
2022/06/29 06:13:56;;;;;;;9.50;5.70;;;;;;;;;;5055314;28;20124;-62
2022/06/29 06:16:24;;;;;;;7.43;6.10;;;;;;;;;;5053766;28;20127;-63
2022/06/29 06:18:50;;;;;;;8.05;5.25;;;18.50;99.90;;;;;;5054082;28;20083;-63
2022/06/29 06:21:16;;;;;;;10.35;5.65;;;;;;;;;;5054061;28;20162;-63
2022/06/29 06:23:41;;;;;;;9.75;5.70;;;19.30;99.90;;;;;;5054805;28;20037;-62
2022/06/29 06:26:10;;;;;;;8.57;5.53;;;;;;;;;;5055271;28;20040;-63
2022/06/29 06:28:35;;;;;;;6.70;5.07;;;19.30;99.90;;;;;;5054121;28;20041;-62
2022/06/29 06:31:01;;;;;;;8.25;4.80;;;;;;;;;;5053121;28;20194;-62
2022/06/29 06:33:27;;;;;;;8.13;5.35;;;;;;;;;;5054257;28;20056;-63
2022/06/29 06:35:53;;;;;;;9.05;5.35;;;19.70;99.90;;;;;;5061838;28;20089;-62
2022/06/29 06:38:19;;;;;;;6.53;4.22;;;19.70;99.90;;;;;;5056846;28;20049;-62
2022/06/29 06:43:29;;;;;;;8.25;3.97;;;19.90;99.90;;;;;;5065222;28;20124;-63
2022/06/29 06:45:55;;;;;;;7.65;3.40;;;;;;;;;;5066333;28;20123;-63
2022/06/29 06:48:21;;;;;;;7.85;4.20;;;20.20;99.90;;;;;;5073945;28;20468;-63
2022/06/29 06:50:46;;;;;;;7.50;3.83;;;20.30;99.90;;;;;;5057955;28;20076;-62
2022/06/29 06:53:12;;;;;;;7.03;3.60;;;20.40;99.90;;;;;;5073601;28;20048;-62
2022/06/29 06:55:37;;;;;;;5.88;3.13;;;20.50;99.90;;;;;;5075270;28;20048;-63
2022/06/29 06:58:03;;;;;;;12.38;4.38;;;20.70;99.90;;;;;;5071924;28;20040;-63
2022/06/29 07:00:29;;;;;;;5.75;3.20;;;20.90;99.90;;;;;;5074982;28;20040;-62
2022/06/29 07:02:55;;;;;;;6.60;3.20;;;;;;;;;;5055191;28;20064;-62
2022/06/29 07:05:21;;;;;;;5.50;3.05;;;;;;;;;;5057261;28;20043;-63
2022/06/29 07:07:47;;;;;;;5.45;2.78;;;21.30;99.90;;;;;;5070939;28;20189;-62
2022/06/29 07:10:13;;;;;;;8.07;3.42;;;21.30;99.90;;;;;;5062269;28;20032;-62
2022/06/29 07:12:39;;;;;;;4.95;2.80;;;21.00;99.90;;;;;;5064421;28;20123;-63
2022/06/29 07:15:06;;;;;;;6.10;2.67;;;21.30;99.90;;;;;;5054808;28;20379;-64
2022/06/29 07:17:32;;;;;;;9.00;3.25;;;21.60;99.90;;;;;;5052642;28;20529;-64
2022/06/29 07:20:00;;;;;;;5.30;2.90;;;21.50;99.90;;;;;;5068423;28;20084;-65
2022/06/29 07:22:26;;;;;;;5.38;2.55;;;21.60;99.90;;;;;;5037190;28;20493;-65
2022/06/29 07:24:52;;;;;;;5.80;2.83;;;;;;;;;;5060825;28;20094;-65
2022/06/29 07:27:18;;;;;;;5.25;2.60;;;21.60;99.90;;;;;;5050456;28;20044;-64
2022/06/29 07:29:44;;;;;;;5.22;2.70;;;;;;;;;;5064777;28;20041;-64
2022/06/29 07:32:10;;;;;;;5.50;2.33;;;21.30;99.90;;;;;;5068109;28;20044;-65
2022/06/29 07:34:36;;;;;;;6.35;2.92;;;21.40;99.90;;;;;;5056841;28;20459;-64
2022/06/29 07:37:02;;;;;;;4.78;2.58;;;21.90;99.90;;;;;;5049910;28;20044;-64
2022/06/29 07:39:30;;;;;;;6.40;2.40;;;22.60;99.90;;;;;;5033332;28;20061;-63
2022/06/29 07:41:57;;;;;;;5.78;2.28;;;22.40;99.90;;;;;;5050200;28;20041;-63
2022/06/29 07:44:23;;;;;;;6.43;2.70;;;;;;;;;;5050455;28;20049;-64
2022/06/29 07:46:48;;;;;;;5.47;2.45;;;22.20;99.90;;;;;;5050144;28;20048;-64
2022/06/29 07:49:14;;;;;;;6.57;2.30;;;;;;;;;;5052331;28;20029;-64
2022/06/29 07:51:40;;;;;;;6.35;2.28;;;;;;;;;;5053609;28;20393;-64
2022/06/29 07:54:06;;;;;;;6.43;2.42;;;22.50;99.90;;;;;;5045523;28;20075;-63
2022/06/29 07:56:33;;;;;;;4.47;2.17;;;;;;;;;;5063637;28;20071;-64
2022/06/29 07:59:03;;;;;;;4.95;2.17;;;;;;;;;;5056723;28;20049;-64
2022/06/29 08:01:29;;;;;;;6.40;2.10;;;23.40;99.90;;;;;;5051923;28;20080;-65
2022/06/29 08:03:55;;;;;;;5.05;2.15;;;;;;;;;;5061318;28;20052;-65
2022/06/29 08:06:24;;;;;;;7.18;2.22;;;22.90;99.90;;;;;;5069276;28;20040;-63
2022/06/29 08:08:51;;;;;;;4.38;1.80;;;;;;;;;;5062006;28;20452;-64
2022/06/29 08:11:17;;;;;;;4.15;1.98;;;;;;;;;;5063334;28;20180;-64
2022/06/29 08:13:43;;;;;;;6.47;2.30;;;;;;;;;;5065897;28;20044;-63
2022/06/29 08:16:09;;;;;;;4.60;2.03;;;;;;;;;;5041107;28;20086;-64
2022/06/29 08:18:35;;;;;;;4.35;1.90;;;;;;;;;;5071776;28;20070;-64
2022/06/29 08:21:02;;;;;;;4.88;2.20;;;;;;;;;;5060058;28;20467;-64
2022/06/29 08:23:28;;;;;;;4.65;2.15;;;;;;;;;;5052901;28;20060;-65
2022/06/29 08:25:54;;;;;;;5.13;1.85;;;;;;;;;;5054204;28;20041;-65
2022/06/29 08:28:20;;;;;;;4.35;1.75;;;;;;;;;;5036017;28;20367;-64
2022/06/29 08:30:46;;;;;;;6.63;2.30;;;;;;;;;;5068634;28;20505;-64
2022/06/29 08:33:13;;;;;;;7.60;2.20;;;;;;;;;;5065849;28;20037;-64
2022/06/29 08:35:39;;;;;;;8.07;2.33;;;;;;;;;;5051520;28;20041;-64
2022/06/29 08:38:05;;;;;;;4.90;2.20;;;;;;;;;;5051602;28;20398;-64
2022/06/29 08:40:47;;;;;;;5.28;2.00;;;24.00;99.90;;;;;;5051819;28;20037;-64
2022/06/29 08:43:17;;;;;;;5.35;1.73;;;25.30;99.70;;;;;;5051952;28;20486;-64
2022/06/29 08:45:46;;;;;;;5.25;1.88;;;24.10;98.30;;;;;;5051514;28;20037;-64
2022/06/29 08:48:13;;;;;;;4.05;2.55;;;24.00;99.90;;;;;;5063624;28;20036;-64
2022/06/29 08:50:43;;;;;;;4.47;1.83;;;24.10;95.80;;;;;;5054726;28;20041;-64
2022/06/29 08:53:14;;;;;;;4.15;2.22;;;24.20;99.90;;;;;;5069990;28;20101;-64
2022/06/29 08:55:51;;;;;;;3.92;1.83;;;24.10;95.20;;;;;;5072913;28;20040;-63
2022/06/29 08:58:17;;;;;;;5.38;1.83;;;;;;;;;;5070591;28;20112;-65
2022/06/29 09:00:43;;;;;;;6.97;1.80;;;;;;;;;;5069419;28;20471;-65
2022/06/29 09:03:10;;;;;;;3.92;1.80;;;;;;;;;;5060282;28;20037;-65
2022/06/29 09:05:37;;;;;;;7.30;2.28;;;;;;;;;;5065387;28;20056;-65
2022/06/29 09:08:03;;;;;;;9.57;2.50;;;;;;;;;;5056881;28;20102;-65
2022/06/29 09:10:30;;;;;;;5.45;2.13;;;;;;;;;;5052167;28;20087;-65
2022/06/29 09:12:58;;;;;;;5.43;2.03;;;;;;;;;;5053566;28;20079;-65
2022/06/29 09:15:32;;;;;;;3.78;1.48;;;;;;;;;;5067051;28;20120;-64
2022/06/29 09:17:58;;;;;;;;;;;;;;;;;;5054877;28;20033;-64
2022/06/29 09:20:24;;;;;;;4.40;1.90;;;;;;;;;;5058641;28;19969;-65
2022/06/29 09:22:52;;;;;;;6.57;1.92;;;;;;;;;;5070848;28;20101;-65
2022/06/29 09:25:21;;;;;;;6.25;1.67;;;;;;;;;;5055955;28;20049;-63
2022/06/29 09:27:47;;;;;;;4.32;1.98;;;;;;;;;;5052074;28;20128;-65
2022/06/29 09:30:36;;;;;;;7.25;2.22;;;;;;;;;;5050751;28;20048;-64
2022/06/29 09:33:07;;;;;;;4.30;1.98;;;;;;;;;;5054430;28;20036;-64
2022/06/29 09:35:34;;;;;;;4.25;1.75;;;;;;;;;;5069351;28;20489;-64
2022/06/29 09:38:19;;;;;;;5.03;1.73;;;;;;;;;;5070332;28;20051;-65
2022/06/29 09:41:00;;;;;;;3.72;2.00;;;25.20;96.70;;;;;;5071213;28;20086;-66
2022/06/29 09:43:26;;;;;;;4.60;1.88;;;;;;;;;;5067671;28;20056;-67
2022/06/29 09:45:52;;;;;;;5.70;1.83;;;25.50;99.90;;;;;;5050247;28;20102;-66
2022/06/29 09:48:21;;;;;;;3.72;1.80;;;25.50;88.50;;;;;;5062210;28;20033;-65
2022/06/29 09:50:49;;;;;;;3.78;2.00;;;25.90;96.70;;;;;;5063878;28;20044;-65
2022/06/29 09:53:16;;;;;;;6.43;1.98;;;25.50;84.40;;;;;;5050173;28;20049;-65
2022/06/29 09:55:43;;;;;;;3.88;1.98;;;;;;;;;;5050867;28;20056;-65
2022/06/29 09:58:10;;;;;;;4.35;2.00;;;25.70;96.80;;;;;;5033917;28;20067;-65
2022/06/29 10:03:21;;;;;;;5.07;2.75;;;25.80;82.80;;;;;;5052259;28;20073;-66
2022/06/29 10:05:54;;;;;;;5.30;1.70;;;25.90;81.00;;;;;;5038724;28;20039;-65
2022/06/29 10:08:20;;;;;;;5.55;1.60;;;25.90;81.60;;;;;;5033395;28;20045;-65
2022/06/29 10:10:56;;;;;;;5.45;1.73;;;25.90;78.70;;;;;;5051692;28;20037;-65
2022/06/29 10:13:39;;;;;;;3.28;1.75;;;26.00;78.60;;;;;;5050745;28;20128;-65
2022/06/29 10:16:40;;;;;;;6.03;2.00;;;26.00;79.80;;;;;;5049665;28;20053;-65
2022/06/29 10:19:39;;;;;;;5.70;1.80;;;26.10;78.80;;;;;;5050721;28;20053;-65
2022/06/29 10:22:04;;;;;;;7.55;2.13;;;26.00;79.30;;;;;;5065357;28;20547;-65
2022/06/29 10:24:30;;;;;;;3.33;1.75;;;26.00;78.20;;;;;;5069648;28;20037;-65
2022/06/29 10:26:56;;;;;;;4.82;1.90;;;25.90;77.40;;;;;;5063407;28;20368;-65
2022/06/29 10:29:22;;;;;;;4.15;1.90;;;26.00;76.60;;;;;;5049797;28;20076;-65
2022/06/29 10:31:51;;;;;;;5.57;2.22;;;;;;;;;;5051520;28;20052;-65
2022/06/29 10:34:37;;;;;;;5.85;2.30;;;;;;;;;;5050245;28;20048;-66
2022/06/29 10:37:11;;;;;;;3.90;1.90;;;;;;;;;;5051338;28;20131;-65
2022/06/29 10:39:53;;;;;;;3.70;1.90;;;;;;;;;;5051840;28;20040;-65
2022/06/29 10:45:17;;;;;;;3.70;1.75;;;26.60;87.70;;;;;;5054601;28;20049;-65
2022/06/29 10:47:56;;;;;;;4.82;2.00;;;26.70;73.20;;;;;;5051533;28;20036;-65
2022/06/29 10:50:29;;;;;;;4.63;2.15;;;26.80;73.50;;;;;;5050730;28;20486;-65
2022/06/29 10:52:56;;;;;;;5.35;1.90;;;26.90;71.30;;;;;;5033882;28;20047;-66
2022/06/29 10:55:24;;;;;;;5.55;1.85;;;27.00;69.10;;;;;;5063058;28;20093;-66
2022/06/29 10:57:51;;;;;;;5.65;2.13;;;27.00;67.90;;;;;;5072794;28;20048;-65
2022/06/29 11:00:17;;;;;;;5.85;2.15;;;27.00;67.60;;;;;;5058523;28;20037;-66
2022/06/29 11:02:44;;;;;;;4.50;2.10;;;27.10;66.50;;;;;;5055036;28;20120;-65
2022/06/29 11:05:10;;;;;;;5.75;2.30;;;27.10;66.90;;;;;;5054177;28;20037;-66
2022/06/29 11:12:01;;;;;;;4.47;1.95;;;27.00;66.40;;;;;;5054591;28;20037;-66
2022/06/29 11:13:31;;;;;;;6.35;2.25;;;27.00;65.60;;;;;;5052811;28;20115;-65
2022/06/29 11:16:00;;;;;;;3.72;1.70;;;27.20;65.70;;;;;;5062346;28;20047;-66
2022/06/29 11:18:27;;;;;;;5.03;1.50;;;;;;;;;;5051285;28;20040;-66
2022/06/29 11:20:54;;;;;;;3.03;1.38;;;;;;;;;;5051390;28;20461;-67
2022/06/29 11:23:21;;;;;;;4.57;1.83;;;;;;;;;;5052860;28;20440;-66
2022/06/29 11:25:48;;;;;;;3.75;1.90;;;;;;;;;;5049395;28;20072;-66
2022/06/29 11:28:17;;;;;;;3.05;1.67;;;;;;;;;;5051978;28;20563;-67
2022/06/29 11:31:00;;;;;;;5.25;1.80;;;;;;;;;;5062661;28;20041;-66
2022/06/29 11:33:30;;;;;;;5.32;2.38;;;;;;;;;;5050825;28;20371;-66
2022/06/29 11:35:56;;;;;;;5.10;1.83;;;;;;;;;;5067384;28;20036;-66
2022/06/29 11:38:29;;;;;;;3.88;1.70;;;;;;;;;;5069356;28;20071;-66
2022/06/29 11:40:55;;;;;;;5.30;2.15;;;;;;;;;;5050771;28;20080;-67
2022/06/29 11:43:22;;;;;;;3.15;1.67;;;;;;;;;;5046278;28;20119;-66
2022/06/29 11:45:50;;;;;;;3.80;1.73;;;27.90;63.00;;;;;;5049344;28;20053;-66
2022/06/29 11:48:19;;;;;;;3.15;1.73;;;;;;;;;;5049988;28;20041;-66
2022/06/29 11:50:48;;;;;;;5.65;1.75;;;;;;;;;;5050680;28;20043;-66
2022/06/29 11:53:16;;;;;;;5.50;1.70;;;;;;;;;;5048853;28;20079;-66
2022/06/29 11:55:44;;;;;;;3.85;1.63;;;;;;;;;;5051060;28;20044;-67
2022/06/29 11:58:14;;;;;;;8.73;2.33;;;27.80;94.40;;;;;;5049993;28;20147;-66
2022/06/29 12:00:42;;;;;;;3.70;1.98;;;27.70;57.20;;;;;;5032592;28;20053;-66
2022/06/29 12:03:08;;;;;;;5.15;1.80;;;27.50;57.80;;;;;;5032624;28;20071;-66
2022/06/29 12:05:34;;;;;;;4.47;1.40;;;27.50;59.00;;;;;;5049944;28;20132;-66
2022/06/29 12:08:00;;;;;;;3.50;1.73;;;27.60;58.80;;;;;;5047823;28;20571;-66
2022/06/29 12:10:26;;;;;;;4.43;1.40;;;27.70;59.40;;;;;;5052571;28;20073;-66
2022/06/29 12:12:52;;;;;;;3.33;1.58;;;27.80;58.40;;;;;;5032691;28;20134;-66
2022/06/29 12:15:17;;;;;;;3.10;1.30;;;28.00;58.50;;;;;;5060372;28;20182;-66
2022/06/29 12:17:44;;;;;;;3.47;1.98;;;;;;;;;;5049135;28;20442;-67
2022/06/29 12:20:11;;;;;;;5.25;1.60;;;;;;;;;;5032414;28;20064;-66
2022/06/29 12:22:37;;;;;;;4.13;1.75;;;;;;;;;;5048608;28;20041;-66
2022/06/29 12:25:03;;;;;;;3.30;1.40;;;;;;;;;;5049958;28;20041;-66
2022/06/29 12:27:29;;;;;;;3.80;1.50;;;;;;;;;;5048627;28;20041;-66
2022/06/29 12:29:55;;;;;;;3.53;1.55;;;;;;;;;;5050038;28;20044;-66
2022/06/29 12:32:21;;;;;;;4.82;1.85;;;;;;;;;;5056812;28;20409;-67
2022/06/29 12:34:47;;;;;;;3.20;1.45;;;;;;;;;;5072067;28;20040;-67
2022/06/29 12:37:13;;;;;;;4.35;1.77;;;;;;;;;;5073063;28;20132;-66
2022/06/29 12:39:39;;;;;;;4.93;1.73;;;;;;;;;;5051841;28;20098;-66
2022/06/29 12:42:06;;;;;;;3.90;1.70;;;;;;;;;;5058058;28;20040;-66
2022/06/29 12:44:32;;;;;;;3.92;1.85;;;;;;;;;;5057430;28;20044;-66
2022/06/29 12:46:58;;;;;;;6.78;2.17;;;;;;;;;;5052336;28;20052;-66
2022/06/29 12:49:24;;;;;;;3.83;1.50;;;;;;;;;;5053452;28;20041;-66
2022/06/29 12:51:50;;;;;;;4.10;2.20;;;;;;;;;;5063817;28;20045;-66
2022/06/29 12:54:17;;;;;;;5.07;1.98;;;;;;;;;;5052738;28;20124;-65
2022/06/29 12:56:44;;;;;;;4.00;1.42;;;;;;;;;;5056938;28;20048;-65
2022/06/29 12:59:10;;;;;;;4.93;1.70;;;;;;;;;;5070695;28;20040;-64
2022/06/29 13:01:36;;;;;;;3.30;1.60;;;;;;;;;;5069765;28;20162;-65
2022/06/29 13:04:03;;;;;;;3.83;1.70;;;;;;;;;;5042648;28;20564;-65
2022/06/29 13:06:29;;;;;;;4.55;1.80;;;;;;;;;;5052871;28;20041;-64
2022/06/29 13:08:55;;;;;;;6.80;1.77;;;;;;;;;;5053110;28;20505;-64
2022/06/29 13:11:20;;;;;;;4.32;1.80;;;29.10;97.80;;;;;;5051858;28;20048;-64
2022/06/29 13:13:46;;;;;;;5.25;1.88;;;29.40;93.30;;;;;;5051591;28;20047;-64
2022/06/29 13:16:12;;;;;;;4.45;2.17;;;29.40;83.60;;;;;;5034396;28;20048;-65
2022/06/29 13:18:37;;;;;;;4.40;2.13;;;29.30;82.10;;;;;;5034027;28;20049;-65
2022/06/29 13:21:03;;;;;;;4.25;1.90;;;29.30;81.30;;;;;;5055525;28;20547;-65
2022/06/29 13:23:29;;;;;;;4.65;2.08;;;29.00;82.90;;;;;;5063414;28;20046;-65
2022/06/29 13:25:56;;;;;;;4.00;1.98;;;;;;;;;;5034235;28;20041;-65
2022/06/29 13:28:23;;;;;;;4.85;2.20;;;28.50;96.60;;;;;;5051172;28;20504;-64
2022/06/29 13:30:48;;;;;;;5.28;2.33;;;28.30;54.20;;;;;;5051202;28;20040;-64
2022/06/29 13:33:14;;;;;;;4.53;2.05;;;28.20;54.60;;;;;;5054822;28;20496;-65
2022/06/29 13:35:41;;;;;;;4.68;2.00;;;28.40;55.70;;;;;;5070933;28;20123;-65
2022/06/29 13:38:07;;;;;;;3.45;2.25;;;28.70;56.60;;;;;;5060523;28;20120;-64
2022/06/29 13:40:33;;;;;;;6.10;1.88;;;29.00;54.90;;;;;;5053077;28;20170;-65
2022/06/29 13:43:00;;;;;;;4.40;2.13;;;;;;;;;;5039981;28;20577;-65
2022/06/29 13:45:26;;;;;;;4.10;2.20;;;;;;;;;;5049834;28;20041;-65
2022/06/29 13:47:53;;;;;;;4.53;2.10;;;;;;;;;;5051754;28;20040;-65
2022/06/29 13:50:19;;;;;;;4.25;2.30;;;;;;;;;;5052270;28;20048;-65
2022/06/29 13:52:45;;;;;;;4.65;2.50;;;;;;;;;;5050258;28;20048;-66
2022/06/29 13:55:12;;;;;;;5.75;2.60;;;;;;;;;;5037416;28;20366;-65
2022/06/29 13:57:39;;;;;;;3.78;1.90;;;;;;;;;;5072212;28;20045;-65
2022/06/29 14:00:06;;;;;;;3.60;1.88;;;;;;;;;;5070841;28;20051;-66
2022/06/29 14:02:34;;;;;;;4.60;2.28;;;;;;;;;;5053801;28;20123;-65
2022/06/29 14:05:01;;;;;;;7.97;2.22;;;;;;;;;;5052008;28;20045;-65
2022/06/29 14:07:27;;;;;;;4.00;2.10;;;;;;;;;;5066777;28;20174;-65
2022/06/29 14:09:53;;;;;;;4.20;2.03;;;;;;;;;;5053104;28;20040;-65
2022/06/29 14:12:19;;;;;;;6.25;2.85;;;;;;;;;;5065467;28;20036;-65
2022/06/29 14:14:45;;;;;;;4.55;2.05;;;;;;;;;;5059900;28;20047;-65
2022/06/29 14:17:11;;;;;;;4.70;2.42;;;;;;;;;;5058496;28;20059;-65
2022/06/29 14:19:39;;;;;;;4.45;2.45;;;;;;;;;;5064744;28;20121;-66
2022/06/29 14:22:05;;;;;;;4.32;2.20;;;29.10;51.60;;;;;;5069426;28;20150;-66
2022/06/29 14:24:31;;;;;;;4.72;2.05;;;29.10;51.80;;;;;;5071551;28;20033;-65
2022/06/29 14:26:57;;;;;;;4.72;2.50;;;28.90;52.30;;;;;;5067420;28;20127;-67
2022/06/29 14:29:23;;;;;;;4.95;2.58;;;28.60;53.10;;;;;;5072048;28;20037;-66